Flight Track Log - Related Links

Times and Time Zones

All times are in EST time to prevent confusion due to time zone crossing. See the SAS867 flight status page for this flight to view local times or setup timezone preferences in your user account.

Time Position Orientation Groundspeed Altitude Reporting Facility
EST Latitude Longitude Course Direction KTS MPH feet Rate Location/Type
Fri 08:45:00 AM 59.7175 17.2901 282° West  Level Estimated
Fri 08:46:00 AM 59.7387 17.0801 281° West  Level Estimated
Fri 08:47:00 AM 59.7596 16.8698 281° West  Level Estimated
Fri 08:48:00 AM 59.7801 16.6592 281° West  Level Estimated
Fri 08:49:00 AM 59.7959 16.4947 281° West  Level Estimated
Fri 08:50:00 AM 59.8115 16.3300 281° West  Level Estimated
Fri 08:51:00 AM 59.8268 16.1652 281° West  Level Estimated
Fri 08:52:00 AM 59.8420 16.0002 280° West  Level Estimated
Fri 08:53:00 AM 59.8570 15.8351 280° West  Level Estimated
Fri 08:54:00 AM 59.8717 15.6698 280° West  Level Estimated
Fri 08:55:00 AM 59.8863 15.5044 280° West  Level Estimated
Fri 08:56:00 AM 59.9006 15.3388 280° West  Level Estimated
Fri 08:57:00 AM 59.9147 15.1731 280° West  Level Estimated
Fri 08:58:00 AM 59.9287 15.0073 280° West  Level Estimated
Fri 08:59:00 AM 59.9424 14.8413 279° West  Level Estimated
Fri 09:00:00 AM 59.9559 14.6751 279° West  Level Estimated
Fri 09:01:00 AM 59.9692 14.5089 279° West  Level Estimated
Fri 09:02:00 AM 59.9823 14.3425 279° West  Level Estimated
Fri 09:03:00 AM 59.9952 14.1760 279° West  Level Estimated
Fri 09:04:00 AM 60.0078 14.0093 279° West  Level Estimated
Fri 09:05:00 AM 60.0203 13.8426 279° West  Level Estimated
Fri 09:06:00 AM 60.0325 13.6757 278° West  Level Estimated
Fri 09:07:00 AM 60.0446 13.5086 278° West  Level Estimated
Fri 09:08:00 AM 60.0564 13.3415 278° West  Level Estimated
Fri 09:09:00 AM 60.0680 13.1742 278° West  Level Estimated
Fri 09:10:00 AM 60.0794 13.0069 278° West  Level Estimated
Fri 09:11:00 AM 60.0906 12.8394 278° West  Level Estimated
Fri 09:12:00 AM 60.1016 12.6718 278° West  Level Estimated
Fri 09:13:00 AM 60.1124 12.5040 277° West  Level Estimated
Fri 09:14:00 AM 60.1229 12.3362 277° West  Level Estimated
Fri 09:15:00 AM 60.1333 12.1683 277° West  Level Estimated
Fri 09:16:00 AM 60.1434 12.0002 277° West  Level Estimated
Fri 09:17:00 AM 60.1533 11.8321 277° West  Level Estimated
Fri 09:18:00 AM 60.1650 11.6292 277° West  Level Estimated
Fri 09:19:00 AM 60.1763 11.4262 277° West  Level Estimated
Fri 09:20:00 AM 60.1874 11.2230 276° West  Level Estimated
Fri 09:21:00 AM 60.1939 11.1004 276° West  Level Estimated
Fri 09:22:00 AM 60.1939 11.1004 171° South  Level Estimated
Fri 09:23:00 AM 60.1939 11.1004 171° South  Level Estimated
Fri 09:24:00 AM 60.1939 11.1004 171° South  Level Estimated
Fri 09:25:00 AM 60.1939 11.1004 171° South  Level Estimated
Fri 09:26:00 AM 60.1939 11.1004 171° South  Level Estimated
Fri 09:27:00 AM 60.1939 11.1004 171° South  Level Estimated
Fri 09:28:00 AM 60.1939 11.1004 171° South  Level Estimated
Fri 09:29:00 AM 60.1939 11.1004 171° South  Level Estimated
Fri 09:30:00 AM 60.1939 11.1004 171° South  Level Estimated
Fri 09:31:00 AM 60.1939 11.1004 171° South  Level Estimated
Fri 09:32:00 AM 60.1939 11.1004 171° South  Level Estimated

Login

Don't have an account? Register now (free) for customized features, flight alerts, and more!